sensor_id;sensor_type;location;lat;lon;timestamp;temperature;humidity
75964;DHT22;65820;44.726;37.764;2023-04-03T00:00:07;20.73;53.39
75964;DHT22;65820;44.726;37.764;2023-04-03T00:01:10;20.73;53.61
75964;DHT22;65820;44.726;37.764;2023-04-03T00:02:11;20.73;54.21
75964;DHT22;65820;44.726;37.764;2023-04-03T00:03:12;20.73;53.39
75964;DHT22;65820;44.726;37.764;2023-04-03T00:04:13;20.73;53.30
75964;DHT22;65820;44.726;37.764;2023-04-03T00:05:15;20.74;53.30
75964;DHT22;65820;44.726;37.764;2023-04-03T00:06:16;20.75;53.56
75964;DHT22;65820;44.726;37.764;2023-04-03T00:07:18;20.74;53.41
75964;DHT22;65820;44.726;37.764;2023-04-03T00:08:19;20.75;53.30
75964;DHT22;65820;44.726;37.764;2023-04-03T00:09:20;20.74;53.33
75964;DHT22;65820;44.726;37.764;2023-04-03T00:10:22;20.74;53.33
75964;DHT22;65820;44.726;37.764;2023-04-03T00:11:23;20.74;53.38
75964;DHT22;65820;44.726;37.764;2023-04-03T00:12:26;20.75;54.22
75964;DHT22;65820;44.726;37.764;2023-04-03T00:13:27;20.74;53.46
75964;DHT22;65820;44.726;37.764;2023-04-03T00:14:29;20.75;53.28
75964;DHT22;65820;44.726;37.764;2023-04-03T00:15:30;20.74;53.82
75964;DHT22;65820;44.726;37.764;2023-04-03T00:16:32;20.75;53.44
75964;DHT22;65820;44.726;37.764;2023-04-03T00:17:33;20.75;53.36
75964;DHT22;65820;44.726;37.764;2023-04-03T00:18:35;20.74;53.41
75964;DHT22;65820;44.726;37.764;2023-04-03T00:19:36;20.75;53.27
75964;DHT22;65820;44.726;37.764;2023-04-03T00:20:37;20.74;54.09
75964;DHT22;65820;44.726;37.764;2023-04-03T00:21:39;20.75;53.65
75964;DHT22;65820;44.726;37.764;2023-04-03T00:22:41;20.75;53.45
75964;DHT22;65820;44.726;37.764;2023-04-03T00:23:42;20.73;53.91
75964;DHT22;65820;44.726;37.764;2023-04-03T00:24:43;20.74;53.43
75964;DHT22;65820;44.726;37.764;2023-04-03T00:25:45;20.73;53.29
75964;DHT22;65820;44.726;37.764;2023-04-03T00:26:46;20.75;53.30
75964;DHT22;65820;44.726;37.764;2023-04-03T00:27:48;20.74;53.46
75964;DHT22;65820;44.726;37.764;2023-04-03T00:28:49;20.74;53.27
75964;DHT22;65820;44.726;37.764;2023-04-03T00:29:51;20.74;53.46
75964;DHT22;65820;44.726;37.764;2023-04-03T00:30:52;20.75;53.30
75964;DHT22;65820;44.726;37.764;2023-04-03T00:31:53;20.74;53.26
75964;DHT22;65820;44.726;37.764;2023-04-03T00:32:55;20.76;53.30
75964;DHT22;65820;44.726;37.764;2023-04-03T00:33:56;20.75;53.57
75964;DHT22;65820;44.726;37.764;2023-04-03T00:34:59;20.75;53.30
75964;DHT22;65820;44.726;37.764;2023-04-03T00:36:06;20.75;53.16
75964;DHT22;65820;44.726;37.764;2023-04-03T00:37:07;20.75;53.65
75964;DHT22;65820;44.726;37.764;2023-04-03T00:38:09;20.75;53.76
75964;DHT22;65820;44.726;37.764;2023-04-03T00:39:10;20.75;53.33
75964;DHT22;65820;44.726;37.764;2023-04-03T00:40:14;20.75;53.75
75964;DHT22;65820;44.726;37.764;2023-04-03T00:41:15;20.75;53.21
75964;DHT22;65820;44.726;37.764;2023-04-03T00:42:17;20.75;53.21
75964;DHT22;65820;44.726;37.764;2023-04-03T00:43:23;20.75;53.10
75964;DHT22;65820;44.726;37.764;2023-04-03T00:45:38;20.76;53.14
75964;DHT22;65820;44.726;37.764;2023-04-03T00:46:40;20.75;54.00
75964;DHT22;65820;44.726;37.764;2023-04-03T00:47:42;20.76;53.28
75964;DHT22;65820;44.726;37.764;2023-04-03T00:48:47;20.78;53.17
75964;DHT22;65820;44.726;37.764;2023-04-03T00:49:50;20.77;53.57
75964;DHT22;65820;44.726;37.764;2023-04-03T00:50:52;20.76;53.13
75964;DHT22;65820;44.726;37.764;2023-04-03T00:51:55;20.77;53.16
75964;DHT22;65820;44.726;37.764;2023-04-03T00:52:58;20.76;53.07
75964;DHT22;65820;44.726;37.764;2023-04-03T00:54:03;20.77;53.17
75964;DHT22;65820;44.726;37.764;2023-04-03T00:55:07;20.76;53.14
75964;DHT22;65820;44.726;37.764;2023-04-03T00:56:12;20.77;53.58
75964;DHT22;65820;44.726;37.764;2023-04-03T00:57:15;20.77;53.04
75964;DHT22;65820;44.726;37.764;2023-04-03T00:58:19;20.78;53.54
75964;DHT22;65820;44.726;37.764;2023-04-03T00:59:25;20.76;53.25
75964;DHT22;65820;44.726;37.764;2023-04-03T01:00:28;20.77;53.10
75964;DHT22;65820;44.726;37.764;2023-04-03T01:01:30;20.78;53.23
75964;DHT22;65820;44.726;37.764;2023-04-03T01:02:33;20.78;53.27
75964;DHT22;65820;44.726;37.764;2023-04-03T01:03:35;20.76;53.10
75964;DHT22;65820;44.726;37.764;2023-04-03T01:04:41;20.77;53.06
75964;DHT22;65820;44.726;37.764;2023-04-03T01:05:43;20.77;53.11
75964;DHT22;65820;44.726;37.764;2023-04-03T01:06:44;20.77;53.10
75964;DHT22;65820;44.726;37.764;2023-04-03T01:07:46;20.78;53.07
75964;DHT22;65820;44.726;37.764;2023-04-03T01:08:49;20.76;53.06
75964;DHT22;65820;44.726;37.764;2023-04-03T01:09:56;20.78;53.06
75964;DHT22;65820;44.726;37.764;2023-04-03T01:10:57;20.77;53.22
75964;DHT22;65820;44.726;37.764;2023-04-03T01:12:30;20.76;53.19
75964;DHT22;65820;44.726;37.764;2023-04-03T01:13:32;20.78;53.69
75964;DHT22;65820;44.726;37.764;2023-04-03T01:14:34;20.76;53.24
75964;DHT22;65820;44.726;37.764;2023-04-03T01:15:36;20.77;53.05
75964;DHT22;65820;44.726;37.764;2023-04-03T01:16:38;20.78;53.04
75964;DHT22;65820;44.726;37.764;2023-04-03T01:17:57;20.78;53.46
75964;DHT22;65820;44.726;37.764;2023-04-03T01:19:00;20.79;53.14
75964;DHT22;65820;44.726;37.764;2023-04-03T01:22:19;20.77;53.96
75964;DHT22;65820;44.726;37.764;2023-04-03T01:23:48;20.78;53.52
75964;DHT22;65820;44.726;37.764;2023-04-03T01:24:53;20.77;53.04
75964;DHT22;65820;44.726;37.764;2023-04-03T01:25:56;20.77;53.24
75964;DHT22;65820;44.726;37.764;2023-04-03T01:26:58;20.78;53.01
75964;DHT22;65820;44.726;37.764;2023-04-03T01:27:59;20.77;52.98
75964;DHT22;65820;44.726;37.764;2023-04-03T01:29:03;20.78;52.98
75964;DHT22;65820;44.726;37.764;2023-04-03T01:30:05;20.78;53.12
75964;DHT22;65820;44.726;37.764;2023-04-03T01:32:53;20.77;53.46
75964;DHT22;65820;44.726;37.764;2023-04-03T01:33:55;20.76;53.10
75964;DHT22;65820;44.726;37.764;2023-04-03T01:34:57;20.74;53.10
75964;DHT22;65820;44.726;37.764;2023-04-03T01:35:58;20.73;53.00
75964;DHT22;65820;44.726;37.764;2023-04-03T01:37:00;20.73;53.21
75964;DHT22;65820;44.726;37.764;2023-04-03T01:38:01;20.72;52.87
75964;DHT22;65820;44.726;37.764;2023-04-03T01:39:03;20.72;52.71
75964;DHT22;65820;44.726;37.764;2023-04-03T01:40:06;20.70;52.69
75964;DHT22;65820;44.726;37.764;2023-04-03T01:41:09;20.70;52.56
75964;DHT22;65820;44.726;37.764;2023-04-03T01:42:11;20.69;52.63
75964;DHT22;65820;44.726;37.764;2023-04-03T01:43:16;20.68;52.61
75964;DHT22;65820;44.726;37.764;2023-04-03T01:44:17;20.66;52.62
75964;DHT22;65820;44.726;37.764;2023-04-03T01:45:20;20.66;52.62
75964;DHT22;65820;44.726;37.764;2023-04-03T01:46:22;20.68;52.67
75964;DHT22;65820;44.726;37.764;2023-04-03T01:47:23;20.66;52.60
75964;DHT22;65820;44.726;37.764;2023-04-03T01:48:25;20.66;52.67
75964;DHT22;65820;44.726;37.764;2023-04-03T01:49:27;20.64;52.63
75964;DHT22;65820;44.726;37.764;2023-04-03T01:50:29;20.64;52.63
75964;DHT22;65820;44.726;37.764;2023-04-03T01:51:30;20.63;52.74
75964;DHT22;65820;44.726;37.764;2023-04-03T01:52:32;20.63;52.66
75964;DHT22;65820;44.726;37.764;2023-04-03T01:53:33;20.63;52.55
75964;DHT22;65820;44.726;37.764;2023-04-03T01:54:34;20.62;52.63
75964;DHT22;65820;44.726;37.764;2023-04-03T01:55:36;20.62;52.61
75964;DHT22;65820;44.726;37.764;2023-04-03T01:56:37;20.63;52.51
75964;DHT22;65820;44.726;37.764;2023-04-03T01:57:40;20.62;52.62
75964;DHT22;65820;44.726;37.764;2023-04-03T01:58:41;20.61;52.74
75964;DHT22;65820;44.726;37.764;2023-04-03T01:59:42;20.62;52.59
75964;DHT22;65820;44.726;37.764;2023-04-03T02:00:44;20.61;52.65
75964;DHT22;65820;44.726;37.764;2023-04-03T02:01:46;20.61;52.56
75964;DHT22;65820;44.726;37.764;2023-04-03T02:02:47;20.61;52.73
75964;DHT22;65820;44.726;37.764;2023-04-03T02:03:49;20.61;52.65
75964;DHT22;65820;44.726;37.764;2023-04-03T02:04:50;20.61;52.65
75964;DHT22;65820;44.726;37.764;2023-04-03T02:05:52;20.61;52.57
75964;DHT22;65820;44.726;37.764;2023-04-03T02:06:53;20.62;52.84
75964;DHT22;65820;44.726;37.764;2023-04-03T02:07:55;20.60;52.67
75964;DHT22;65820;44.726;37.764;2023-04-03T02:08:57;20.60;52.62
75964;DHT22;65820;44.726;37.764;2023-04-03T02:09:58;20.60;52.81
75964;DHT22;65820;44.726;37.764;2023-04-03T02:10:59;20.61;52.59
75964;DHT22;65820;44.726;37.764;2023-04-03T02:12:01;20.60;52.65
75964;DHT22;65820;44.726;37.764;2023-04-03T02:13:02;20.59;52.62
75964;DHT22;65820;44.726;37.764;2023-04-03T02:14:04;20.59;52.69
75964;DHT22;65820;44.726;37.764;2023-04-03T02:15:05;20.60;52.60
75964;DHT22;65820;44.726;37.764;2023-04-03T02:16:10;20.60;52.74
75964;DHT22;65820;44.726;37.764;2023-04-03T02:17:12;20.59;52.75
75964;DHT22;65820;44.726;37.764;2023-04-03T02:18:14;20.59;52.65
75964;DHT22;65820;44.726;37.764;2023-04-03T02:19:16;20.59;52.62
75964;DHT22;65820;44.726;37.764;2023-04-03T02:20:17;20.58;52.81
75964;DHT22;65820;44.726;37.764;2023-04-03T02:21:18;20.59;52.83
75964;DHT22;65820;44.726;37.764;2023-04-03T02:22:22;20.59;52.62
75964;DHT22;65820;44.726;37.764;2023-04-03T02:23:23;20.58;52.76
75964;DHT22;65820;44.726;37.764;2023-04-03T02:24:25;20.58;52.69
75964;DHT22;65820;44.726;37.764;2023-04-03T02:25:27;20.58;52.75
75964;DHT22;65820;44.726;37.764;2023-04-03T02:26:28;20.58;52.65
75964;DHT22;65820;44.726;37.764;2023-04-03T02:27:29;20.59;52.69
75964;DHT22;65820;44.726;37.764;2023-04-03T02:28:34;20.58;52.57
75964;DHT22;65820;44.726;37.764;2023-04-03T02:29:35;20.57;52.68
75964;DHT22;65820;44.726;37.764;2023-04-03T02:30:36;20.58;52.74
75964;DHT22;65820;44.726;37.764;2023-04-03T02:31:39;20.58;52.74
75964;DHT22;65820;44.726;37.764;2023-04-03T02:32:41;20.57;52.69
75964;DHT22;65820;44.726;37.764;2023-04-03T02:33:43;20.57;52.73
75964;DHT22;65820;44.726;37.764;2023-04-03T02:34:47;20.57;52.76
75964;DHT22;65820;44.726;37.764;2023-04-03T02:35:53;20.57;52.78
75964;DHT22;65820;44.726;37.764;2023-04-03T02:36:55;20.57;52.72
75964;DHT22;65820;44.726;37.764;2023-04-03T02:37:57;20.58;52.83
75964;DHT22;65820;44.726;37.764;2023-04-03T02:38:59;20.57;52.82
75964;DHT22;65820;44.726;37.764;2023-04-03T02:40:00;20.57;52.74
75964;DHT22;65820;44.726;37.764;2023-04-03T02:41:05;20.57;52.88
75964;DHT22;65820;44.726;37.764;2023-04-03T02:42:07;20.57;52.72
75964;DHT22;65820;44.726;37.764;2023-04-03T02:43:08;20.56;52.85
75964;DHT22;65820;44.726;37.764;2023-04-03T02:44:12;20.56;52.81
75964;DHT22;65820;44.726;37.764;2023-04-03T02:45:13;20.55;52.78
75964;DHT22;65820;44.726;37.764;2023-04-03T02:46:16;20.56;52.85
75964;DHT22;65820;44.726;37.764;2023-04-03T02:47:17;20.55;52.72
75964;DHT22;65820;44.726;37.764;2023-04-03T02:48:19;20.56;52.81
75964;DHT22;65820;44.726;37.764;2023-04-03T02:49:20;20.56;52.75
75964;DHT22;65820;44.726;37.764;2023-04-03T02:50:22;20.55;52.72
75964;DHT22;65820;44.726;37.764;2023-04-03T02:51:23;20.56;52.72
75964;DHT22;65820;44.726;37.764;2023-04-03T02:52:27;20.56;52.61
75964;DHT22;65820;44.726;37.764;2023-04-03T02:53:30;20.56;52.69
75964;DHT22;65820;44.726;37.764;2023-04-03T02:54:33;20.55;52.83
75964;DHT22;65820;44.726;37.764;2023-04-03T02:55:38;20.56;52.85
75964;DHT22;65820;44.726;37.764;2023-04-03T02:56:39;20.56;52.82
75964;DHT22;65820;44.726;37.764;2023-04-03T02:57:41;20.56;52.75
75964;DHT22;65820;44.726;37.764;2023-04-03T02:58:42;20.56;52.68
75964;DHT22;65820;44.726;37.764;2023-04-03T02:59:44;20.55;52.69
75964;DHT22;65820;44.726;37.764;2023-04-03T03:00:46;20.56;52.62
75964;DHT22;65820;44.726;37.764;2023-04-03T03:01:47;20.55;52.81
75964;DHT22;65820;44.726;37.764;2023-04-03T03:02:49;20.56;52.71
75964;DHT22;65820;44.726;37.764;2023-04-03T03:03:50;20.56;52.59
75964;DHT22;65820;44.726;37.764;2023-04-03T03:04:51;20.56;52.71
75964;DHT22;65820;44.726;37.764;2023-04-03T03:06:07;20.55;52.69
75964;DHT22;65820;44.726;37.764;2023-04-03T03:07:09;20.56;52.66
75964;DHT22;65820;44.726;37.764;2023-04-03T03:08:10;20.55;52.67
75964;DHT22;65820;44.726;37.764;2023-04-03T03:09:12;20.55;52.65
75964;DHT22;65820;44.726;37.764;2023-04-03T03:10:14;20.55;52.66
75964;DHT22;65820;44.726;37.764;2023-04-03T03:11:15;20.56;52.67
75964;DHT22;65820;44.726;37.764;2023-04-03T03:12:17;20.56;52.70
75964;DHT22;65820;44.726;37.764;2023-04-03T03:13:22;20.55;52.72
75964;DHT22;65820;44.726;37.764;2023-04-03T03:14:23;20.55;52.69
75964;DHT22;65820;44.726;37.764;2023-04-03T03:15:25;20.55;52.78
75964;DHT22;65820;44.726;37.764;2023-04-03T03:16:26;20.56;52.71
75964;DHT22;65820;44.726;37.764;2023-04-03T03:17:27;20.54;52.83
75964;DHT22;65820;44.726;37.764;2023-04-03T03:18:29;20.54;52.84
75964;DHT22;65820;44.726;37.764;2023-04-03T03:19:30;20.55;52.81
75964;DHT22;65820;44.726;37.764;2023-04-03T03:20:32;20.55;52.80
75964;DHT22;65820;44.726;37.764;2023-04-03T03:21:33;20.54;52.82
75964;DHT22;65820;44.726;37.764;2023-04-03T03:22:36;20.55;53.00
75964;DHT22;65820;44.726;37.764;2023-04-03T03:23:38;20.53;53.00
75964;DHT22;65820;44.726;37.764;2023-04-03T03:24:40;20.54;52.85
75964;DHT22;65820;44.726;37.764;2023-04-03T03:25:43;20.54;52.87
75964;DHT22;65820;44.726;37.764;2023-04-03T03:26:45;20.53;52.91
75964;DHT22;65820;44.726;37.764;2023-04-03T03:27:47;20.51;52.74
75964;DHT22;65820;44.726;37.764;2023-04-03T03:28:48;20.51;52.98
75964;DHT22;65820;44.726;37.764;2023-04-03T03:29:49;20.51;53.41
75964;DHT22;65820;44.726;37.764;2023-04-03T03:30:51;20.51;53.14
75964;DHT22;65820;44.726;37.764;2023-04-03T03:31:53;20.50;53.12
75964;DHT22;65820;44.726;37.764;2023-04-03T03:32:54;20.49;53.01
75964;DHT22;65820;44.726;37.764;2023-04-03T03:33:56;20.48;53.14
75964;DHT22;65820;44.726;37.764;2023-04-03T03:34:57;20.49;52.93
75964;DHT22;65820;44.726;37.764;2023-04-03T03:35:59;20.48;52.91
75964;DHT22;65820;44.726;37.764;2023-04-03T03:37:00;20.49;52.78
75964;DHT22;65820;44.726;37.764;2023-04-03T03:38:03;20.48;52.88
75964;DHT22;65820;44.726;37.764;2023-04-03T03:39:04;20.49;52.91
75964;DHT22;65820;44.726;37.764;2023-04-03T03:40:06;20.47;52.96
75964;DHT22;65820;44.726;37.764;2023-04-03T03:41:08;20.48;52.82
75964;DHT22;65820;44.726;37.764;2023-04-03T03:42:10;20.47;52.97
75964;DHT22;65820;44.726;37.764;2023-04-03T03:43:12;20.48;52.76
75964;DHT22;65820;44.726;37.764;2023-04-03T03:44:13;20.48;52.97
75964;DHT22;65820;44.726;37.764;2023-04-03T03:45:15;20.48;52.82
75964;DHT22;65820;44.726;37.764;2023-04-03T03:46:16;20.48;53.27
75964;DHT22;65820;44.726;37.764;2023-04-03T03:47:18;20.48;53.12
75964;DHT22;65820;44.726;37.764;2023-04-03T03:48:20;20.47;53.22
75964;DHT22;65820;44.726;37.764;2023-04-03T03:49:22;20.46;53.10
75964;DHT22;65820;44.726;37.764;2023-04-03T03:50:24;20.45;53.13
75964;DHT22;65820;44.726;37.764;2023-04-03T03:51:25;20.45;52.87
75964;DHT22;65820;44.726;37.764;2023-04-03T03:52:26;20.45;52.99
75964;DHT22;65820;44.726;37.764;2023-04-03T03:53:28;20.44;53.01
75964;DHT22;65820;44.726;37.764;2023-04-03T03:54:34;20.44;53.07
75964;DHT22;65820;44.726;37.764;2023-04-03T03:55:35;20.43;53.03
75964;DHT22;65820;44.726;37.764;2023-04-03T03:56:36;20.44;52.91
75964;DHT22;65820;44.726;37.764;2023-04-03T03:57:38;20.43;52.82
75964;DHT22;65820;44.726;37.764;2023-04-03T03:58:40;20.45;52.87
75964;DHT22;65820;44.726;37.764;2023-04-03T03:59:41;20.45;52.99
75964;DHT22;65820;44.726;37.764;2023-04-03T04:00:44;20.44;53.31
75964;DHT22;65820;44.726;37.764;2023-04-03T04:01:46;20.45;53.47
75964;DHT22;65820;44.726;37.764;2023-04-03T04:02:47;20.46;53.57
75964;DHT22;65820;44.726;37.764;2023-04-03T04:03:52;20.46;53.33
75964;DHT22;65820;44.726;37.764;2023-04-03T04:04:58;20.45;53.18
75964;DHT22;65820;44.726;37.764;2023-04-03T04:06:00;20.46;53.51
75964;DHT22;65820;44.726;37.764;2023-04-03T04:07:02;20.46;53.56
75964;DHT22;65820;44.726;37.764;2023-04-03T04:08:05;20.45;53.75
75964;DHT22;65820;44.726;37.764;2023-04-03T04:09:06;20.44;53.39
75964;DHT22;65820;44.726;37.764;2023-04-03T04:10:08;20.46;53.42
75964;DHT22;65820;44.726;37.764;2023-04-03T04:11:10;20.44;53.01
75964;DHT22;65820;44.726;37.764;2023-04-03T04:12:12;20.45;53.04
75964;DHT22;65820;44.726;37.764;2023-04-03T04:13:14;20.46;52.87
75964;DHT22;65820;44.726;37.764;2023-04-03T04:14:15;20.46;53.09
75964;DHT22;65820;44.726;37.764;2023-04-03T04:15:18;20.48;53.27
75964;DHT22;65820;44.726;37.764;2023-04-03T04:16:19;20.47;52.98
75964;DHT22;65820;44.726;37.764;2023-04-03T04:17:21;20.48;53.00
75964;DHT22;65820;44.726;37.764;2023-04-03T04:18:23;20.48;53.27
75964;DHT22;65820;44.726;37.764;2023-04-03T04:19:24;20.49;52.95
75964;DHT22;65820;44.726;37.764;2023-04-03T04:20:26;20.48;52.82
75964;DHT22;65820;44.726;37.764;2023-04-03T04:21:31;20.50;53.15
75964;DHT22;65820;44.726;37.764;2023-04-03T04:22:32;20.50;53.41
75964;DHT22;65820;44.726;37.764;2023-04-03T04:23:33;20.49;53.91
75964;DHT22;65820;44.726;37.764;2023-04-03T04:24:35;20.49;53.17
75964;DHT22;65820;44.726;37.764;2023-04-03T04:25:37;20.49;52.98
75964;DHT22;65820;44.726;37.764;2023-04-03T04:26:39;20.47;53.27
75964;DHT22;65820;44.726;37.764;2023-04-03T04:27:43;20.49;52.91
75964;DHT22;65820;44.726;37.764;2023-04-03T04:28:45;20.49;53.01
75964;DHT22;65820;44.726;37.764;2023-04-03T04:29:47;20.50;52.86
75964;DHT22;65820;44.726;37.764;2023-04-03T04:30:48;20.51;53.00
75964;DHT22;65820;44.726;37.764;2023-04-03T04:31:51;20.53;53.15
75964;DHT22;65820;44.726;37.764;2023-04-03T04:32:52;20.54;53.07
75964;DHT22;65820;44.726;37.764;2023-04-03T04:33:54;20.53;53.33
75964;DHT22;65820;44.726;37.764;2023-04-03T04:34:55;20.54;53.10
75964;DHT22;65820;44.726;37.764;2023-04-03T04:35:56;20.54;53.22
75964;DHT22;65820;44.726;37.764;2023-04-03T04:36:58;20.54;53.49
75964;DHT22;65820;44.726;37.764;2023-04-03T04:38:00;20.55;53.49
75964;DHT22;65820;44.726;37.764;2023-04-03T04:39:02;20.55;53.49
75964;DHT22;65820;44.726;37.764;2023-04-03T04:40:04;20.57;53.63
75964;DHT22;65820;44.726;37.764;2023-04-03T04:41:06;20.58;53.92
75964;DHT22;65820;44.726;37.764;2023-04-03T04:42:07;20.59;53.55
75964;DHT22;65820;44.726;37.764;2023-04-03T04:43:15;20.59;53.31
75964;DHT22;65820;44.726;37.764;2023-04-03T04:44:18;20.60;53.71
75964;DHT22;65820;44.726;37.764;2023-04-03T04:45:19;20.61;53.24
75964;DHT22;65820;44.726;37.764;2023-04-03T04:46:22;20.63;53.20
75964;DHT22;65820;44.726;37.764;2023-04-03T04:47:28;20.64;53.51
75964;DHT22;65820;44.726;37.764;2023-04-03T04:48:30;20.65;53.13
75964;DHT22;65820;44.726;37.764;2023-04-03T04:49:32;20.64;53.30
75964;DHT22;65820;44.726;37.764;2023-04-03T04:50:33;20.66;53.02
75964;DHT22;65820;44.726;37.764;2023-04-03T04:51:35;20.68;53.55
75964;DHT22;65820;44.726;37.764;2023-04-03T04:52:37;20.68;53.25
75964;DHT22;65820;44.726;37.764;2023-04-03T04:53:39;20.69;53.11
75964;DHT22;65820;44.726;37.764;2023-04-03T04:54:42;20.70;53.03
75964;DHT22;65820;44.726;37.764;2023-04-03T04:55:44;20.72;52.87
75964;DHT22;65820;44.726;37.764;2023-04-03T04:56:45;20.71;53.32
75964;DHT22;65820;44.726;37.764;2023-04-03T04:57:46;20.72;52.80
75964;DHT22;65820;44.726;37.764;2023-04-03T04:58:48;20.72;52.87
75964;DHT22;65820;44.726;37.764;2023-04-03T04:59:51;20.73;52.98
75964;DHT22;65820;44.726;37.764;2023-04-03T05:01:03;20.73;52.70
75964;DHT22;65820;44.726;37.764;2023-04-03T05:02:05;20.74;52.82
75964;DHT22;65820;44.726;37.764;2023-04-03T05:03:06;20.74;52.76
75964;DHT22;65820;44.726;37.764;2023-04-03T05:04:07;20.75;52.62
75964;DHT22;65820;44.726;37.764;2023-04-03T05:05:10;20.75;52.72
75964;DHT22;65820;44.726;37.764;2023-04-03T05:06:12;20.76;52.59
75964;DHT22;65820;44.726;37.764;2023-04-03T05:07:13;20.76;53.11
75964;DHT22;65820;44.726;37.764;2023-04-03T05:08:14;20.76;52.60
75964;DHT22;65820;44.726;37.764;2023-04-03T05:09:17;20.76;52.72
75964;DHT22;65820;44.726;37.764;2023-04-03T05:10:19;20.77;52.82
75964;DHT22;65820;44.726;37.764;2023-04-03T05:11:21;20.78;52.72
75964;DHT22;65820;44.726;37.764;2023-04-03T05:12:25;20.78;52.52
75964;DHT22;65820;44.726;37.764;2023-04-03T05:13:31;20.78;52.46
75964;DHT22;65820;44.726;37.764;2023-04-03T05:14:32;20.79;52.56
75964;DHT22;65820;44.726;37.764;2023-04-03T05:15:38;20.78;52.65
75964;DHT22;65820;44.726;37.764;2023-04-03T05:16:40;20.79;52.43
75964;DHT22;65820;44.726;37.764;2023-04-03T05:17:42;20.80;52.37
75964;DHT22;65820;44.726;37.764;2023-04-03T05:18:47;20.80;52.87
75964;DHT22;65820;44.726;37.764;2023-04-03T05:19:53;20.80;52.37
75964;DHT22;65820;44.726;37.764;2023-04-03T05:20:56;20.79;52.39
75964;DHT22;65820;44.726;37.764;2023-04-03T05:22:00;20.80;52.65
75964;DHT22;65820;44.726;37.764;2023-04-03T05:23:03;20.81;52.40
75964;DHT22;65820;44.726;37.764;2023-04-03T05:24:07;20.81;52.79
75964;DHT22;65820;44.726;37.764;2023-04-03T05:25:13;20.81;52.33
75964;DHT22;65820;44.726;37.764;2023-04-03T05:26:17;20.81;52.33
75964;DHT22;65820;44.726;37.764;2023-04-03T05:27:21;20.80;52.54
75964;DHT22;65820;44.726;37.764;2023-04-03T05:28:27;20.80;52.32
75964;DHT22;65820;44.726;37.764;2023-04-03T05:29:28;20.81;52.48
75964;DHT22;65820;44.726;37.764;2023-04-03T05:30:32;20.83;52.62
75964;DHT22;65820;44.726;37.764;2023-04-03T05:31:36;20.81;52.26
75964;DHT22;65820;44.726;37.764;2023-04-03T05:32:37;20.83;52.23
75964;DHT22;65820;44.726;37.764;2023-04-03T05:34:04;20.83;52.46
75964;DHT22;65820;44.726;37.764;2023-04-03T05:35:08;20.83;52.42
75964;DHT22;65820;44.726;37.764;2023-04-03T05:36:10;20.83;52.24
75964;DHT22;65820;44.726;37.764;2023-04-03T05:37:17;20.83;52.32
75964;DHT22;65820;44.726;37.764;2023-04-03T05:38:19;20.84;52.14
75964;DHT22;65820;44.726;37.764;2023-04-03T05:39:21;20.84;52.31
75964;DHT22;65820;44.726;37.764;2023-04-03T05:40:23;20.84;52.36
75964;DHT22;65820;44.726;37.764;2023-04-03T05:41:27;20.85;52.24
75964;DHT22;65820;44.726;37.764;2023-04-03T05:42:28;20.86;52.11
75964;DHT22;65820;44.726;37.764;2023-04-03T05:43:29;20.86;52.14
75964;DHT22;65820;44.726;37.764;2023-04-03T05:44:31;20.86;52.30
75964;DHT22;65820;44.726;37.764;2023-04-03T05:45:32;20.85;52.33
75964;DHT22;65820;44.726;37.764;2023-04-03T05:46:34;20.86;52.25
75964;DHT22;65820;44.726;37.764;2023-04-03T05:47:39;20.87;52.10
75964;DHT22;65820;44.726;37.764;2023-04-03T05:48:42;20.86;52.08
75964;DHT22;65820;44.726;37.764;2023-04-03T05:49:46;20.87;52.01
75964;DHT22;65820;44.726;37.764;2023-04-03T05:50:49;20.86;52.04
75964;DHT22;65820;44.726;37.764;2023-04-03T05:51:56;20.87;52.06
75964;DHT22;65820;44.726;37.764;2023-04-03T05:53:02;20.87;52.13
75964;DHT22;65820;44.726;37.764;2023-04-03T05:54:12;20.87;52.08
75964;DHT22;65820;44.726;37.764;2023-04-03T05:55:15;20.88;52.11
75964;DHT22;65820;44.726;37.764;2023-04-03T05:56:17;20.88;52.08
75964;DHT22;65820;44.726;37.764;2023-04-03T05:57:18;20.88;51.95
75964;DHT22;65820;44.726;37.764;2023-04-03T05:58:20;20.88;52.03
75964;DHT22;65820;44.726;37.764;2023-04-03T05:59:23;20.89;52.01
75964;DHT22;65820;44.726;37.764;2023-04-03T06:00:27;20.89;51.93
75964;DHT22;65820;44.726;37.764;2023-04-03T06:01:35;20.89;51.88
75964;DHT22;65820;44.726;37.764;2023-04-03T06:02:36;20.90;51.98
75964;DHT22;65820;44.726;37.764;2023-04-03T06:03:37;20.89;52.15
75964;DHT22;65820;44.726;37.764;2023-04-03T06:04:40;20.89;51.95
75964;DHT22;65820;44.726;37.764;2023-04-03T06:05:42;20.91;51.87
75964;DHT22;65820;44.726;37.764;2023-04-03T06:06:48;20.91;51.87
75964;DHT22;65820;44.726;37.764;2023-04-03T06:07:50;20.91;51.96
75964;DHT22;65820;44.726;37.764;2023-04-03T06:08:51;20.92;51.90
75964;DHT22;65820;44.726;37.764;2023-04-03T06:09:54;20.91;51.92
75964;DHT22;65820;44.726;37.764;2023-04-03T06:10:56;20.91;51.85
75964;DHT22;65820;44.726;37.764;2023-04-03T06:11:58;20.91;51.98
75964;DHT22;65820;44.726;37.764;2023-04-03T06:12:59;20.91;51.79
75964;DHT22;65820;44.726;37.764;2023-04-03T06:14:01;20.92;51.88
75964;DHT22;65820;44.726;37.764;2023-04-03T06:15:04;20.92;51.85
75964;DHT22;65820;44.726;37.764;2023-04-03T06:16:05;20.92;51.81
75964;DHT22;65820;44.726;37.764;2023-04-03T06:17:07;20.92;51.82
75964;DHT22;65820;44.726;37.764;2023-04-03T06:18:10;20.92;51.83
75964;DHT22;65820;44.726;37.764;2023-04-03T06:19:12;20.92;51.80
75964;DHT22;65820;44.726;37.764;2023-04-03T06:20:17;20.93;51.79
75964;DHT22;65820;44.726;37.764;2023-04-03T06:21:18;20.93;51.87
75964;DHT22;65820;44.726;37.764;2023-04-03T06:22:21;20.93;51.75
75964;DHT22;65820;44.726;37.764;2023-04-03T06:23:22;20.93;51.99
75964;DHT22;65820;44.726;37.764;2023-04-03T06:24:24;20.94;51.75
75964;DHT22;65820;44.726;37.764;2023-04-03T06:25:26;20.93;51.78
75964;DHT22;65820;44.726;37.764;2023-04-03T06:26:27;20.94;51.75
75964;DHT22;65820;44.726;37.764;2023-04-03T06:27:29;20.94;51.72
75964;DHT22;65820;44.726;37.764;2023-04-03T06:28:31;20.95;51.68
75964;DHT22;65820;44.726;37.764;2023-04-03T06:29:32;20.96;51.68
75964;DHT22;65820;44.726;37.764;2023-04-03T06:30:33;20.93;51.69
75964;DHT22;65820;44.726;37.764;2023-04-03T06:31:36;20.94;51.70
75964;DHT22;65820;44.726;37.764;2023-04-03T06:32:37;20.95;51.83
75964;DHT22;65820;44.726;37.764;2023-04-03T06:33:39;20.96;51.87